McClure, Virginia
Current Conditions -  °F | °C
As of 1:15 PM on Monday 26 Jan 2015 (Local Time) from KLNP Reporting Station
Overcast Overcast  
Wind Chill: 20°   Ceiling: 1100
Heat Index: 30°   Visibility: 7mi
Dew Point: 28°   Wind: 14mph
Humidity: 93%   Direction: 280°W
Pressure: 29.72"   Gusts: 17mph
Location:  37.1°N, 82.38°W
Report Text: KLNP 261815Z AUTO 28012G15KT 7SM OVC011 M01/M02 A2972 RMK AO2
Loading
Personal Weather Stations






























Interactive Weather Map New forecast layout! Learn more

10-Day Weather Forecast

Advertisements
Track Severe Weather on mobile